sensor_id;sensor_type;location;lat;lon;timestamp;temperature;humidity
77693;SHT31;66984;47.404;18.836;2023-07-13T00:00:14;25.38;67.40
77693;SHT31;66984;47.404;18.836;2023-07-13T00:01:20;25.37;67.42
77693;SHT31;66984;47.404;18.836;2023-07-13T00:02:30;25.34;67.41
77693;SHT31;66984;47.404;18.836;2023-07-13T00:03:35;25.35;67.22
77693;SHT31;66984;47.404;18.836;2023-07-13T00:04:38;25.34;67.08
77693;SHT31;66984;47.404;18.836;2023-07-13T00:05:41;25.34;66.92
77693;SHT31;66984;47.404;18.836;2023-07-13T00:06:45;25.33;66.98
77693;SHT31;66984;47.404;18.836;2023-07-13T00:07:55;25.31;66.77
77693;SHT31;66984;47.404;18.836;2023-07-13T00:08:59;25.28;66.73
77693;SHT31;66984;47.404;18.836;2023-07-13T00:10:03;25.30;66.69
77693;SHT31;66984;47.404;18.836;2023-07-13T00:11:19;25.31;66.38
77693;SHT31;66984;47.404;18.836;2023-07-13T00:12:29;25.31;66.14
77693;SHT31;66984;47.404;18.836;2023-07-13T00:13:39;25.33;65.58
77693;SHT31;66984;47.404;18.836;2023-07-13T00:14:42;25.37;65.59
77693;SHT31;66984;47.404;18.836;2023-07-13T00:15:45;25.27;65.17
77693;SHT31;66984;47.404;18.836;2023-07-13T00:16:48;25.30;64.81
77693;SHT31;66984;47.404;18.836;2023-07-13T00:17:53;25.31;63.47
77693;SHT31;66984;47.404;18.836;2023-07-13T00:19:03;25.30;62.98
77693;SHT31;66984;47.404;18.836;2023-07-13T00:20:07;25.31;62.92
77693;SHT31;66984;47.404;18.836;2023-07-13T00:21:10;25.34;62.96
77693;SHT31;66984;47.404;18.836;2023-07-13T00:22:13;25.35;62.88
77693;SHT31;66984;47.404;18.836;2023-07-13T00:23:17;25.37;62.39
77693;SHT31;66984;47.404;18.836;2023-07-13T00:24:26;25.38;62.58
77693;SHT31;66984;47.404;18.836;2023-07-13T00:25:30;25.41;62.31
77693;SHT31;66984;47.404;18.836;2023-07-13T00:26:33;25.43;62.14
77693;SHT31;66984;47.404;18.836;2023-07-13T00:27:36;25.44;62.33
77693;SHT31;66984;47.404;18.836;2023-07-13T00:28:39;25.45;62.03
77693;SHT31;66984;47.404;18.836;2023-07-13T00:29:50;25.47;61.38
77693;SHT31;66984;47.404;18.836;2023-07-13T00:30:53;25.48;60.77
77693;SHT31;66984;47.404;18.836;2023-07-13T00:31:56;25.50;60.21
77693;SHT31;66984;47.404;18.836;2023-07-13T00:33:00;25.48;60.13
77693;SHT31;66984;47.404;18.836;2023-07-13T00:34:18;25.48;59.67
77693;SHT31;66984;47.404;18.836;2023-07-13T00:35:30;25.52;59.68
77693;SHT31;66984;47.404;18.836;2023-07-13T00:36:33;25.54;59.89
77693;SHT31;66984;47.404;18.836;2023-07-13T00:37:36;25.54;59.61
77693;SHT31;66984;47.404;18.836;2023-07-13T00:38:40;25.58;59.75
77693;SHT31;66984;47.404;18.836;2023-07-13T00:39:43;25.55;59.24
77693;SHT31;66984;47.404;18.836;2023-07-13T00:40:52;25.58;59.42
77693;SHT31;66984;47.404;18.836;2023-07-13T00:41:56;25.60;59.40
77693;SHT31;66984;47.404;18.836;2023-07-13T00:42:59;25.61;59.48
77693;SHT31;66984;47.404;18.836;2023-07-13T00:44:02;25.62;59.11
77693;SHT31;66984;47.404;18.836;2023-07-13T00:46:31;25.67;59.28
77693;SHT31;66984;47.404;18.836;2023-07-13T00:47:34;25.68;59.37
77693;SHT31;66984;47.404;18.836;2023-07-13T00:48:38;25.72;59.43
77693;SHT31;66984;47.404;18.836;2023-07-13T00:49:47;25.72;59.68
77693;SHT31;66984;47.404;18.836;2023-07-13T00:50:52;25.75;60.02
77693;SHT31;66984;47.404;18.836;2023-07-13T00:51:59;25.71;60.39
77693;SHT31;66984;47.404;18.836;2023-07-13T00:53:02;25.74;60.45
77693;SHT31;66984;47.404;18.836;2023-07-13T00:54:10;25.72;60.61
77693;SHT31;66984;47.404;18.836;2023-07-13T00:55:22;25.74;60.83
77693;SHT31;66984;47.404;18.836;2023-07-13T00:56:25;25.72;60.93
77693;SHT31;66984;47.404;18.836;2023-07-13T00:57:28;25.74;60.90
77693;SHT31;66984;47.404;18.836;2023-07-13T00:58:31;25.74;61.00
77693;SHT31;66984;47.404;18.836;2023-07-13T00:59:35;25.74;61.18
77693;SHT31;66984;47.404;18.836;2023-07-13T01:00:47;25.78;61.13
77693;SHT31;66984;47.404;18.836;2023-07-13T01:01:51;25.77;61.12
77693;SHT31;66984;47.404;18.836;2023-07-13T01:02:54;25.78;61.17
77693;SHT31;66984;47.404;18.836;2023-07-13T01:03:58;25.77;61.31
77693;SHT31;66984;47.404;18.836;2023-07-13T01:05:01;25.78;61.43
77693;SHT31;66984;47.404;18.836;2023-07-13T01:06:11;25.80;61.40
77693;SHT31;66984;47.404;18.836;2023-07-13T01:07:14;25.80;61.21
77693;SHT31;66984;47.404;18.836;2023-07-13T01:08:17;25.71;61.52
77693;SHT31;66984;47.404;18.836;2023-07-13T01:09:21;25.60;61.08
77693;SHT31;66984;47.404;18.836;2023-07-13T01:10:54;25.58;60.96
77693;SHT31;66984;47.404;18.836;2023-07-13T01:11:58;25.54;61.21
77693;SHT31;66984;47.404;18.836;2023-07-13T01:13:02;25.47;61.46
77693;SHT31;66984;47.404;18.836;2023-07-13T01:14:06;25.43;61.50
77693;SHT31;66984;47.404;18.836;2023-07-13T01:15:44;25.43;61.58
77693;SHT31;66984;47.404;18.836;2023-07-13T01:16:55;25.43;61.42
77693;SHT31;66984;47.404;18.836;2023-07-13T01:17:58;25.43;61.04
77693;SHT31;66984;47.404;18.836;2023-07-13T01:19:05;25.40;61.06
77693;SHT31;66984;47.404;18.836;2023-07-13T01:20:09;25.34;61.10
77693;SHT31;66984;47.404;18.836;2023-07-13T01:21:11;25.34;61.28
77693;SHT31;66984;47.404;18.836;2023-07-13T01:22:21;25.31;60.12
77693;SHT31;66984;47.404;18.836;2023-07-13T01:23:30;25.23;61.01
77693;SHT31;66984;47.404;18.836;2023-07-13T01:24:37;25.12;61.29
77693;SHT31;66984;47.404;18.836;2023-07-13T01:25:40;25.10;61.25
77693;SHT31;66984;47.404;18.836;2023-07-13T01:26:42;25.09;61.36
77693;SHT31;66984;47.404;18.836;2023-07-13T01:27:51;25.13;61.36
77693;SHT31;66984;47.404;18.836;2023-07-13T01:28:54;25.16;60.83
77693;SHT31;66984;47.404;18.836;2023-07-13T01:29:59;25.16;61.64
77693;SHT31;66984;47.404;18.836;2023-07-13T01:31:06;25.19;61.66
77693;SHT31;66984;47.404;18.836;2023-07-13T01:32:11;25.17;61.71
77693;SHT31;66984;47.404;18.836;2023-07-13T01:33:22;25.12;61.96
77693;SHT31;66984;47.404;18.836;2023-07-13T01:34:25;25.04;62.44
77693;SHT31;66984;47.404;18.836;2023-07-13T01:35:27;25.06;62.36
77693;SHT31;66984;47.404;18.836;2023-07-13T01:36:30;25.07;62.39
77693;SHT31;66984;47.404;18.836;2023-07-13T01:37:33;25.07;62.34
77693;SHT31;66984;47.404;18.836;2023-07-13T01:38:44;25.07;62.25
77693;SHT31;66984;47.404;18.836;2023-07-13T01:39:48;25.04;62.20
77693;SHT31;66984;47.404;18.836;2023-07-13T01:40:52;25.04;61.99
77693;SHT31;66984;47.404;18.836;2023-07-13T01:41:54;25.06;61.94
77693;SHT31;66984;47.404;18.836;2023-07-13T01:42:58;25.06;61.77
77693;SHT31;66984;47.404;18.836;2023-07-13T01:44:07;25.06;61.98
77693;SHT31;66984;47.404;18.836;2023-07-13T01:45:11;25.12;61.96
77693;SHT31;66984;47.404;18.836;2023-07-13T01:46:14;25.12;62.20
77693;SHT31;66984;47.404;18.836;2023-07-13T01:47:24;25.06;62.27
77693;SHT31;66984;47.404;18.836;2023-07-13T01:48:28;24.97;62.77
77693;SHT31;66984;47.404;18.836;2023-07-13T01:49:37;24.90;63.07
77693;SHT31;66984;47.404;18.836;2023-07-13T01:50:41;24.82;63.18
77693;SHT31;66984;47.404;18.836;2023-07-13T01:51:43;24.76;63.41
77693;SHT31;66984;47.404;18.836;2023-07-13T01:52:46;24.75;63.34
77693;SHT31;66984;47.404;18.836;2023-07-13T01:53:49;24.76;63.20
77693;SHT31;66984;47.404;18.836;2023-07-13T01:54:59;24.76;63.19
77693;SHT31;66984;47.404;18.836;2023-07-13T01:56:02;24.79;63.37
77693;SHT31;66984;47.404;18.836;2023-07-13T01:57:05;24.76;63.42
77693;SHT31;66984;47.404;18.836;2023-07-13T01:58:08;24.71;63.33
77693;SHT31;66984;47.404;18.836;2023-07-13T01:59:11;24.69;63.22
77693;SHT31;66984;47.404;18.836;2023-07-13T02:00:20;24.71;63.04
77693;SHT31;66984;47.404;18.836;2023-07-13T02:01:23;24.72;62.86
77693;SHT31;66984;47.404;18.836;2023-07-13T02:02:26;24.72;62.73
77693;SHT31;66984;47.404;18.836;2023-07-13T02:03:29;24.73;62.52
77693;SHT31;66984;47.404;18.836;2023-07-13T02:04:31;24.73;62.14
77693;SHT31;66984;47.404;18.836;2023-07-13T02:05:41;24.73;62.23
77693;SHT31;66984;47.404;18.836;2023-07-13T02:06:44;24.72;62.33
77693;SHT31;66984;47.404;18.836;2023-07-13T02:07:47;24.71;62.28
77693;SHT31;66984;47.404;18.836;2023-07-13T02:08:49;24.75;62.23
77693;SHT31;66984;47.404;18.836;2023-07-13T02:09:52;24.72;62.10
77693;SHT31;66984;47.404;18.836;2023-07-13T02:11:15;24.79;62.19
77693;SHT31;66984;47.404;18.836;2023-07-13T02:12:18;24.77;62.34
77693;SHT31;66984;47.404;18.836;2023-07-13T02:13:21;24.75;62.46
77693;SHT31;66984;47.404;18.836;2023-07-13T02:14:24;24.68;62.46
77693;SHT31;66984;47.404;18.836;2023-07-13T02:15:27;24.66;62.57
77693;SHT31;66984;47.404;18.836;2023-07-13T02:16:36;24.68;62.66
77693;SHT31;66984;47.404;18.836;2023-07-13T02:17:39;24.64;62.50
77693;SHT31;66984;47.404;18.836;2023-07-13T02:18:42;24.56;62.21
77693;SHT31;66984;47.404;18.836;2023-07-13T02:19:44;24.56;62.08
77693;SHT31;66984;47.404;18.836;2023-07-13T02:20:47;24.44;61.81
77693;SHT31;66984;47.404;18.836;2023-07-13T02:21:57;24.39;61.98
77693;SHT31;66984;47.404;18.836;2023-07-13T02:22:59;24.41;61.87
77693;SHT31;66984;47.404;18.836;2023-07-13T02:24:03;24.41;61.76
77693;SHT31;66984;47.404;18.836;2023-07-13T02:25:06;24.45;61.79
77693;SHT31;66984;47.404;18.836;2023-07-13T02:26:09;24.41;61.95
77693;SHT31;66984;47.404;18.836;2023-07-13T02:27:19;24.41;61.97
77693;SHT31;66984;47.404;18.836;2023-07-13T02:28:22;24.41;62.04
77693;SHT31;66984;47.404;18.836;2023-07-13T02:29:25;24.45;62.10
77693;SHT31;66984;47.404;18.836;2023-07-13T02:30:28;24.37;62.53
77693;SHT31;66984;47.404;18.836;2023-07-13T02:31:32;24.28;62.83
77693;SHT31;66984;47.404;18.836;2023-07-13T02:32:42;24.24;63.11
77693;SHT31;66984;47.404;18.836;2023-07-13T02:33:46;24.20;63.19
77693;SHT31;66984;47.404;18.836;2023-07-13T02:34:49;24.18;63.11
77693;SHT31;66984;47.404;18.836;2023-07-13T02:35:52;24.17;63.11
77693;SHT31;66984;47.404;18.836;2023-07-13T02:36:55;24.13;63.25
77693;SHT31;66984;47.404;18.836;2023-07-13T02:38:04;24.14;63.13
77693;SHT31;66984;47.404;18.836;2023-07-13T02:39:07;24.17;63.05
77693;SHT31;66984;47.404;18.836;2023-07-13T02:40:10;24.20;62.73
77693;SHT31;66984;47.404;18.836;2023-07-13T02:41:13;24.21;62.77
77693;SHT31;66984;47.404;18.836;2023-07-13T02:42:16;24.22;62.84
77693;SHT31;66984;47.404;18.836;2023-07-13T02:43:25;24.21;62.96
77693;SHT31;66984;47.404;18.836;2023-07-13T02:44:28;24.21;62.96
77693;SHT31;66984;47.404;18.836;2023-07-13T02:45:30;24.22;63.19
77693;SHT31;66984;47.404;18.836;2023-07-13T02:46:35;24.20;63.71
77693;SHT31;66984;47.404;18.836;2023-07-13T02:47:45;24.16;63.86
77693;SHT31;66984;47.404;18.836;2023-07-13T02:48:48;24.16;63.94
77693;SHT31;66984;47.404;18.836;2023-07-13T02:49:51;24.14;64.03
77693;SHT31;66984;47.404;18.836;2023-07-13T02:50:54;24.16;64.17
77693;SHT31;66984;47.404;18.836;2023-07-13T02:51:57;24.17;64.12
77693;SHT31;66984;47.404;18.836;2023-07-13T02:53:06;24.20;64.11
77693;SHT31;66984;47.404;18.836;2023-07-13T02:54:10;24.17;64.03
77693;SHT31;66984;47.404;18.836;2023-07-13T02:55:14;24.17;63.95
77693;SHT31;66984;47.404;18.836;2023-07-13T02:56:21;24.18;63.92
77693;SHT31;66984;47.404;18.836;2023-07-13T02:57:24;24.17;63.97
77693;SHT31;66984;47.404;18.836;2023-07-13T02:58:34;24.16;64.19
77693;SHT31;66984;47.404;18.836;2023-07-13T02:59:39;24.14;64.46
77693;SHT31;66984;47.404;18.836;2023-07-13T03:00:43;24.13;64.59
77693;SHT31;66984;47.404;18.836;2023-07-13T03:01:46;24.13;64.76
77693;SHT31;66984;47.404;18.836;2023-07-13T03:02:56;24.13;64.91
77693;SHT31;66984;47.404;18.836;2023-07-13T03:04:00;24.10;65.21
77693;SHT31;66984;47.404;18.836;2023-07-13T03:05:03;24.07;65.48
77693;SHT31;66984;47.404;18.836;2023-07-13T03:06:07;24.01;65.64
77693;SHT31;66984;47.404;18.836;2023-07-13T03:07:11;23.98;65.66
77693;SHT31;66984;47.404;18.836;2023-07-13T03:08:23;23.94;65.89
77693;SHT31;66984;47.404;18.836;2023-07-13T03:09:26;23.88;66.04
77693;SHT31;66984;47.404;18.836;2023-07-13T03:10:28;23.90;66.07
77693;SHT31;66984;47.404;18.836;2023-07-13T03:11:44;23.90;66.05
77693;SHT31;66984;47.404;18.836;2023-07-13T03:12:47;23.90;65.98
77693;SHT31;66984;47.404;18.836;2023-07-13T03:13:57;23.90;65.84
77693;SHT31;66984;47.404;18.836;2023-07-13T03:15:00;23.90;65.82
77693;SHT31;66984;47.404;18.836;2023-07-13T03:16:03;23.93;65.82
77693;SHT31;66984;47.404;18.836;2023-07-13T03:17:06;23.93;65.82
77693;SHT31;66984;47.404;18.836;2023-07-13T03:18:15;23.94;65.89
77693;SHT31;66984;47.404;18.836;2023-07-13T03:19:18;23.93;66.01
77693;SHT31;66984;47.404;18.836;2023-07-13T03:20:21;23.96;66.15
77693;SHT31;66984;47.404;18.836;2023-07-13T03:21:24;23.93;66.17
77693;SHT31;66984;47.404;18.836;2023-07-13T03:22:27;23.94;66.20
77693;SHT31;66984;47.404;18.836;2023-07-13T03:23:36;23.96;66.36
77693;SHT31;66984;47.404;18.836;2023-07-13T03:24:39;23.96;66.40
77693;SHT31;66984;47.404;18.836;2023-07-13T03:25:42;23.96;66.42
77693;SHT31;66984;47.404;18.836;2023-07-13T03:26:45;23.94;66.62
77693;SHT31;66984;47.404;18.836;2023-07-13T03:27:48;23.96;66.93
77693;SHT31;66984;47.404;18.836;2023-07-13T03:28:57;23.94;67.17
77693;SHT31;66984;47.404;18.836;2023-07-13T03:30:00;23.96;67.45
77693;SHT31;66984;47.404;18.836;2023-07-13T03:31:09;23.94;67.58
77693;SHT31;66984;47.404;18.836;2023-07-13T03:32:12;23.96;67.99
77693;SHT31;66984;47.404;18.836;2023-07-13T03:33:15;23.96;68.19
77693;SHT31;66984;47.404;18.836;2023-07-13T03:34:24;23.97;68.45
77693;SHT31;66984;47.404;18.836;2023-07-13T03:35:27;23.94;68.54
77693;SHT31;66984;47.404;18.836;2023-07-13T03:36:31;23.98;68.55
77693;SHT31;66984;47.404;18.836;2023-07-13T03:37:35;24.00;68.62
77693;SHT31;66984;47.404;18.836;2023-07-13T03:38:52;24.00;69.10
77693;SHT31;66984;47.404;18.836;2023-07-13T03:39:55;24.04;69.17
77693;SHT31;66984;47.404;18.836;2023-07-13T03:40:58;24.04;69.21
77693;SHT31;66984;47.404;18.836;2023-07-13T03:42:01;24.03;69.27
77693;SHT31;66984;47.404;18.836;2023-07-13T03:43:05;24.04;69.26
77693;SHT31;66984;47.404;18.836;2023-07-13T03:44:16;24.07;69.39
77693;SHT31;66984;47.404;18.836;2023-07-13T03:45:19;24.06;69.35
77693;SHT31;66984;47.404;18.836;2023-07-13T03:46:22;24.08;69.42
77693;SHT31;66984;47.404;18.836;2023-07-13T03:47:25;24.07;69.56
77693;SHT31;66984;47.404;18.836;2023-07-13T03:48:28;24.07;69.61
77693;SHT31;66984;47.404;18.836;2023-07-13T03:49:37;24.11;69.62
77693;SHT31;66984;47.404;18.836;2023-07-13T03:50:40;24.13;69.56
77693;SHT31;66984;47.404;18.836;2023-07-13T03:51:43;24.14;69.51
77693;SHT31;66984;47.404;18.836;2023-07-13T03:52:46;24.14;69.54
77693;SHT31;66984;47.404;18.836;2023-07-13T03:53:56;24.16;69.64
77693;SHT31;66984;47.404;18.836;2023-07-13T03:54:59;24.16;69.61
77693;SHT31;66984;47.404;18.836;2023-07-13T03:56:02;24.18;69.64
77693;SHT31;66984;47.404;18.836;2023-07-13T03:57:05;24.17;69.89
77693;SHT31;66984;47.404;18.836;2023-07-13T03:58:32;24.16;69.94
77693;SHT31;66984;47.404;18.836;2023-07-13T03:59:42;24.17;69.99
77693;SHT31;66984;47.404;18.836;2023-07-13T04:00:45;24.16;70.21
77693;SHT31;66984;47.404;18.836;2023-07-13T04:01:48;24.16;70.11
77693;SHT31;66984;47.404;18.836;2023-07-13T04:02:51;24.18;70.03
77693;SHT31;66984;47.404;18.836;2023-07-13T04:04:01;24.17;69.98
77693;SHT31;66984;47.404;18.836;2023-07-13T04:05:05;24.20;70.02
77693;SHT31;66984;47.404;18.836;2023-07-13T04:06:17;24.22;70.07
77693;SHT31;66984;47.404;18.836;2023-07-13T04:07:23;24.20;70.07
77693;SHT31;66984;47.404;18.836;2023-07-13T04:08:31;24.20;70.05
77693;SHT31;66984;47.404;18.836;2023-07-13T04:09:41;24.17;70.19
77693;SHT31;66984;47.404;18.836;2023-07-13T04:10:57;24.07;70.40
77693;SHT31;66984;47.404;18.836;2023-07-13T04:12:07;24.03;70.32
77693;SHT31;66984;47.404;18.836;2023-07-13T04:13:10;24.03;70.45
77693;SHT31;66984;47.404;18.836;2023-07-13T04:14:19;24.03;70.34
77693;SHT31;66984;47.404;18.836;2023-07-13T04:15:22;24.03;70.48
77693;SHT31;66984;47.404;18.836;2023-07-13T04:16:25;24.01;70.51
77693;SHT31;66984;47.404;18.836;2023-07-13T04:17:28;24.04;70.50
77693;SHT31;66984;47.404;18.836;2023-07-13T04:18:31;24.04;70.50
77693;SHT31;66984;47.404;18.836;2023-07-13T04:19:41;24.06;70.39
77693;SHT31;66984;47.404;18.836;2023-07-13T04:20:44;24.03;70.44
77693;SHT31;66984;47.404;18.836;2023-07-13T04:21:47;24.04;70.57
77693;SHT31;66984;47.404;18.836;2023-07-13T04:22:50;23.97;70.96
77693;SHT31;66984;47.404;18.836;2023-07-13T04:23:53;23.96;70.79
77693;SHT31;66984;47.404;18.836;2023-07-13T04:25:03;23.93;71.09
77693;SHT31;66984;47.404;18.836;2023-07-13T04:26:08;23.90;71.11
77693;SHT31;66984;47.404;18.836;2023-07-13T04:27:11;23.87;71.52
77693;SHT31;66984;47.404;18.836;2023-07-13T04:28:15;23.87;71.46
77693;SHT31;66984;47.404;18.836;2023-07-13T04:29:26;23.92;71.49
77693;SHT31;66984;47.404;18.836;2023-07-13T04:30:29;23.88;71.69
77693;SHT31;66984;47.404;18.836;2023-07-13T04:31:32;23.93;71.61
77693;SHT31;66984;47.404;18.836;2023-07-13T04:32:35;23.92;71.72
77693;SHT31;66984;47.404;18.836;2023-07-13T04:33:38;23.92;71.71
77693;SHT31;66984;47.404;18.836;2023-07-13T04:34:49;23.93;71.71
77693;SHT31;66984;47.404;18.836;2023-07-13T04:35:57;23.92;72.30
77693;SHT31;66984;47.404;18.836;2023-07-13T04:37:00;23.92;72.21
77693;SHT31;66984;47.404;18.836;2023-07-13T04:38:03;23.90;72.17
77693;SHT31;66984;47.404;18.836;2023-07-13T04:39:06;23.92;72.12
77693;SHT31;66984;47.404;18.836;2023-07-13T04:40:17;23.92;72.41
77693;SHT31;66984;47.404;18.836;2023-07-13T04:41:21;23.87;72.76
77693;SHT31;66984;47.404;18.836;2023-07-13T04:42:24;23.83;73.07
77693;SHT31;66984;47.404;18.836;2023-07-13T04:43:27;23.74;72.80
77693;SHT31;66984;47.404;18.836;2023-07-13T04:44:37;23.71;73.00
77693;SHT31;66984;47.404;18.836;2023-07-13T04:45:40;23.76;73.04
77693;SHT31;66984;47.404;18.836;2023-07-13T04:46:43;23.74;73.10
77693;SHT31;66984;47.404;18.836;2023-07-13T04:47:46;23.73;73.50
77693;SHT31;66984;47.404;18.836;2023-07-13T04:48:50;23.73;73.57
77693;SHT31;66984;47.404;18.836;2023-07-13T04:50:02;23.76;73.55
77693;SHT31;66984;47.404;18.836;2023-07-13T04:51:06;23.77;73.76
77693;SHT31;66984;47.404;18.836;2023-07-13T04:52:09;23.76;74.17
77693;SHT31;66984;47.404;18.836;2023-07-13T04:53:13;23.74;74.27
77693;SHT31;66984;47.404;18.836;2023-07-13T04:54:16;23.73;74.22
77693;SHT31;66984;47.404;18.836;2023-07-13T04:55:25;23.74;74.63
77693;SHT31;66984;47.404;18.836;2023-07-13T04:56:28;23.70;74.77
77693;SHT31;66984;47.404;18.836;2023-07-13T04:57:31;23.69;74.77
77693;SHT31;66984;47.404;18.836;2023-07-13T04:58:34;23.70;74.67
77693;SHT31;66984;47.404;18.836;2023-07-13T04:59:44;23.70;74.92
77693;SHT31;66984;47.404;18.836;2023-07-13T05:00:48;23.69;75.28
77693;SHT31;66984;47.404;18.836;2023-07-13T05:01:51;23.67;75.58
77693;SHT31;66984;47.404;18.836;2023-07-13T05:02:55;23.67;75.69
77693;SHT31;66984;47.404;18.836;2023-07-13T05:03:58;23.65;76.00
77693;SHT31;66984;47.404;18.836;2023-07-13T05:05:09;23.60;76.25
77693;SHT31;66984;47.404;18.836;2023-07-13T05:06:12;23.46;76.70
77693;SHT31;66984;47.404;18.836;2023-07-13T05:07:16;23.37;77.16
77693;SHT31;66984;47.404;18.836;2023-07-13T05:08:19;23.25;77.00
77693;SHT31;66984;47.404;18.836;2023-07-13T05:09:22;23.16;76.85
77693;SHT31;66984;47.404;18.836;2023-07-13T05:10:31;23.04;77.25
77693;SHT31;66984;47.404;18.836;2023-07-13T05:11:40;22.92;77.56
77693;SHT31;66984;47.404;18.836;2023-07-13T05:12:43;22.88;78.12
77693;SHT31;66984;47.404;18.836;2023-07-13T05:13:46;22.81;78.26
77693;SHT31;66984;47.404;18.836;2023-07-13T05:14:55;22.75;77.94
77693;SHT31;66984;47.404;18.836;2023-07-13T05:16:04;22.70;78.49
77693;SHT31;66984;47.404;18.836;2023-07-13T05:17:10;22.64;78.25
77693;SHT31;66984;47.404;18.836;2023-07-13T05:18:13;22.57;78.84
77693;SHT31;66984;47.404;18.836;2023-07-13T05:19:16;22.56;78.92
77693;SHT31;66984;47.404;18.836;2023-07-13T05:20:25;22.57;78.77
77693;SHT31;66984;47.404;18.836;2023-07-13T05:21:28;22.56;78.84
77693;SHT31;66984;47.404;18.836;2023-07-13T05:22:31;22.57;78.90
77693;SHT31;66984;47.404;18.836;2023-07-13T05:23:35;22.53;79.16
77693;SHT31;66984;47.404;18.836;2023-07-13T05:24:39;22.46;79.18
77693;SHT31;66984;47.404;18.836;2023-07-13T05:25:48;22.39;79.23
77693;SHT31;66984;47.404;18.836;2023-07-13T05:26:51;22.33;78.59
77693;SHT31;66984;47.404;18.836;2023-07-13T05:27:54;22.32;78.91
77693;SHT31;66984;47.404;18.836;2023-07-13T05:28:57;22.28;79.58
77693;SHT31;66984;47.404;18.836;2023-07-13T05:30:07;22.22;79.45
77693;SHT31;66984;47.404;18.836;2023-07-13T05:31:13;22.23;78.87
77693;SHT31;66984;47.404;18.836;2023-07-13T05:32:18;22.17;78.52
77693;SHT31;66984;47.404;18.836;2023-07-13T05:33:21;22.17;78.79
77693;SHT31;66984;47.404;18.836;2023-07-13T05:34:24;22.13;78.77
77693;SHT31;66984;47.404;18.836;2023-07-13T05:35:33;22.13;79.03
77693;SHT31;66984;47.404;18.836;2023-07-13T05:36:36;22.13;79.01
77693;SHT31;66984;47.404;18.836;2023-07-13T05:37:39;22.13;79.02
77693;SHT31;66984;47.404;18.836;2023-07-13T05:38:42;22.10;78.41
77693;SHT31;66984;47.404;18.836;2023-07-13T05:39:45;22.09;78.69
77693;SHT31;66984;47.404;18.836;2023-07-13T05:40:56;22.09;78.54
77693;SHT31;66984;47.404;18.836;2023-07-13T05:41:59;22.06;78.28
77693;SHT31;66984;47.404;18.836;2023-07-13T05:43:02;21.98;78.38
77693;SHT31;66984;47.404;18.836;2023-07-13T05:44:05;21.96;78.39
77693;SHT31;66984;47.404;18.836;2023-07-13T05:45:14;21.98;78.75
77693;SHT31;66984;47.404;18.836;2023-07-13T05:46:17;21.96;78.48
77693;SHT31;66984;47.404;18.836;2023-07-13T05:47:20;21.93;78.72
77693;SHT31;66984;47.404;18.836;2023-07-13T05:48:23;21.92;78.80
77693;SHT31;66984;47.404;18.836;2023-07-13T05:49:26;21.86;78.99
77693;SHT31;66984;47.404;18.836;2023-07-13T05:50:35;21.86;79.04
77693;SHT31;66984;47.404;18.836;2023-07-13T05:51:38;21.91;79.22
77693;SHT31;66984;47.404;18.836;2023-07-13T05:52:41;21.88;79.20
77693;SHT31;66984;47.404;18.836;2023-07-13T05:53:44;21.85;79.15
77693;SHT31;66984;47.404;18.836;2023-07-13T05:54:47;21.81;79.10
77693;SHT31;66984;47.404;18.836;2023-07-13T05:55:56;21.79;79.33
77693;SHT31;66984;47.404;18.836;2023-07-13T05:57:03;21.75;79.06
77693;SHT31;66984;47.404;18.836;2023-07-13T05:58:06;21.62;79.40
77693;SHT31;66984;47.404;18.836;2023-07-13T05:59:09;21.57;79.76
77693;SHT31;66984;47.404;18.836;2023-07-13T06:00:19;21.51;80.07
77693;SHT31;66984;47.404;18.836;2023-07-13T06:01:22;21.40;79.93
77693;SHT31;66984;47.404;18.836;2023-07-13T06:02:27;21.37;80.14
77693;SHT31;66984;47.404;18.836;2023-07-13T06:03:30;21.30;80.36
77693;SHT31;66984;47.404;18.836;2023-07-13T06:04:33;21.26;80.50
77693;SHT31;66984;47.404;18.836;2023-07-13T06:05:42;21.16;80.55
77693;SHT31;66984;47.404;18.836;2023-07-13T06:06:45;21.10;80.79
77693;SHT31;66984;47.404;18.836;2023-07-13T06:07:48;21.11;81.15
77693;SHT31;66984;47.404;18.836;2023-07-13T06:08:51;21.11;81.26
77693;SHT31;66984;47.404;18.836;2023-07-13T06:09:54;21.11;81.01
77693;SHT31;66984;47.404;18.836;2023-07-13T06:11:18;21.04;80.80
77693;SHT31;66984;47.404;18.836;2023-07-13T06:12:21;21.03;80.89
77693;SHT31;66984;47.404;18.836;2023-07-13T06:13:24;21.03;80.67
77693;SHT31;66984;47.404;18.836;2023-07-13T06:14:27;21.06;80.67
77693;SHT31;66984;47.404;18.836;2023-07-13T06:15:30;21.03;80.43
77693;SHT31;66984;47.404;18.836;2023-07-13T06:16:40;21.03;80.04
77693;SHT31;66984;47.404;18.836;2023-07-13T06:17:43;21.04;80.50
77693;SHT31;66984;47.404;18.836;2023-07-13T06:18:47;21.03;80.25
77693;SHT31;66984;47.404;18.836;2023-07-13T06:19:50;21.02;80.26
77693;SHT31;66984;47.404;18.836;2023-07-13T06:20:53;21.06;80.41
77693;SHT31;66984;47.404;18.836;2023-07-13T06:22:02;21.03;80.30
77693;SHT31;66984;47.404;18.836;2023-07-13T06:23:05;21.00;80.18
77693;SHT31;66984;47.404;18.836;2023-07-13T06:24:08;21.02;80.21
77693;SHT31;66984;47.404;18.836;2023-07-13T06:25:11;21.04;79.70
77693;SHT31;66984;47.404;18.836;2023-07-13T06:26:14;21.08;79.56
77693;SHT31;66984;47.404;18.836;2023-07-13T06:27:24;21.10;79.82
77693;SHT31;66984;47.404;18.836;2023-07-13T06:28:29;21.08;79.80
77693;SHT31;66984;47.404;18.836;2023-07-13T06:29:34;21.13;80.29
77693;SHT31;66984;47.404;18.836;2023-07-13T06:30:38;21.17;80.51
77693;SHT31;66984;47.404;18.836;2023-07-13T06:31:42;21.23;79.89
77693;SHT31;66984;47.404;18.836;2023-07-13T06:32:52;21.28;79.34
77693;SHT31;66984;47.404;18.836;2023-07-13T06:33:55;21.30;78.77
77693;SHT31;66984;47.404;18.836;2023-07-13T06:34:58;21.38;79.57
77693;SHT31;66984;47.404;18.836;2023-07-13T06:36:03;21.44;80.17
77693;SHT31;66984;47.404;18.836;2023-07-13T06:37:06;21.51;80.61
77693;SHT31;66984;47.404;18.836;2023-07-13T06:38:15;21.57;80.32
77693;SHT31;66984;47.404;18.836;2023-07-13T06:39:18;21.64;79.95
77693;SHT31;66984;47.404;18.836;2023-07-13T06:40:21;21.66;79.97
77693;SHT31;66984;47.404;18.836;2023-07-13T06:41:24;21.72;78.95
77693;SHT31;66984;47.404;18.836;2023-07-13T06:42:28;21.78;79.91
77693;SHT31;66984;47.404;18.836;2023-07-13T06:43:37;21.81;79.46
77693;SHT31;66984;47.404;18.836;2023-07-13T06:44:41;21.88;80.03
77693;SHT31;66984;47.404;18.836;2023-07-13T06:45:46;21.95;80.23
77693;SHT31;66984;47.404;18.836;2023-07-13T06:46:50;22.05;81.63